Friday, October 20, 2017, 9:12 PM EDT
Back to Local

KACK, Nantucket Memorial Airport

Location: Nantucket, MA, United States Lat: 41.25
Local Time: 9:12 PM EDT ( 1:12 GMT) Lon: -70.067
Time Zone: US/Eastern Elev: 49 ft

Show me the last for .
Show Coded

Time T Td Feel RH Dir Speed Gust Alt SLP Vis Weather Sky Remarks
2017-10-20 20:53 57 51 - 80 290° 8 - 30.08 30.08 10 CLR None
2017-10-20 19:53 57 53 - 86 280° 7 - 30.06 30.06 10 CLR 6-hr Min Temp (8pm): 57.0°F
6-hr Max Temp (8pm): 68.0°F
2017-10-20 18:53 57 54 - 89 280° 6 - 30.04 30.04 10 CLR None
2017-10-20 17:53 59 54 - 83 270° 6 - 30.03 30.03 10 CLR None
2017-10-20 16:53 64 50 - 60 260° 12 - 30.02 30.01 10 CLR None
2017-10-20 15:53 68 45 - 43 310° 12 - 30.00 30.00 10 CLR None
2017-10-20 14:53 67 46 - 47 300° 13 - 30.00 30.00 10 CLR None
2017-10-20 13:53 68 47 - 46 310° 12 - 30.00 30.00 10 CLR 6-hr Min Temp (2pm): 61.0°F
6-hr Max Temp (2pm): 68.0°F
2017-10-20 12:53 67 48 - 50 320° 10 - 30.02 30.02 10 CLR None
2017-10-20 11:53 66 48 - 52 320° 13 - 30.04 30.04 10 CLR None
2017-10-20 10:53 65 49 - 56 330° 14 - 30.05 30.05 10 CLR None
2017-10-20 09:53 65 52 - 62 320° 14 - 30.05 30.05 10 CLR None
2017-10-20 08:53 63 53 - 70 300° 13 - 30.04 30.04 10 CLR None
2017-10-20 07:53 60 53 - 77 310° 9 - 30.02 30.02 10 CLR 6-hr Min Temp (8am): 57.9°F
6-hr Max Temp (8am): 61.0°F
2017-10-20 06:53 59 56 - 89 280° 9 - 30.01 30.01 10 CLR None
2017-10-20 05:53 60 60 - 100 260° 10 - 30.00 30.00 10 CLR None
2017-10-20 04:53 61 60 - 96 250° 14 - 30.01 30.01 10 CLR None
2017-10-20 03:53 61 60 - 96 240° 15 - 30.01 30.01 10 CLR None
2017-10-20 02:53 60 60 - 100 230° 15 - 30.02 30.02 10 CLR None
2017-10-20 01:53 60 59 - 96 240° 18 - 30.04 30.03 10 CLR 6-hr Min Temp (2am): 60.1°F
6-hr Max Temp (2am): 60.1°F
2017-10-20 00:53 60 58 - 92 230° 20 25 30.06 30.06 10 CLR 24-hr Min Temp (1am): 54.0°F
24-hr Max Temp (1am): 64.9°F
2017-10-19 23:53 60 58 - 92 240° 20 - 30.06 30.06 10 CLR None
2017-10-19 22:53 60 58 - 92 220° 16 - 30.07 30.07 10 CLR None
2017-10-19 21:53 60 59 - 96 210° 18 - 30.07 30.06 10 CLR None

Support USWX by starting your Amazon purchase here.